sensor_id;sensor_type;location;lat;lon;timestamp;P1;durP1;ratioP1;P2;durP2;ratioP2
77012;SDS011;65946;53.130;17.982;2022-12-17T00:00:16;12.60;;;4.50;;
77012;SDS011;65946;53.130;17.982;2022-12-17T00:03:18;22.60;;;7.80;;
77012;SDS011;65946;53.130;17.982;2022-12-17T00:06:04;12.00;;;3.30;;
77012;SDS011;65946;53.130;17.982;2022-12-17T00:08:49;25.30;;;7.60;;
77012;SDS011;65946;53.130;17.982;2022-12-17T00:11:35;16.30;;;5.00;;
77012;SDS011;65946;53.130;17.982;2022-12-17T00:14:20;11.50;;;3.70;;
77012;SDS011;65946;53.130;17.982;2022-12-17T00:17:05;14.40;;;5.10;;
77012;SDS011;65946;53.130;17.982;2022-12-17T00:19:51;16.40;;;5.10;;
77012;SDS011;65946;53.130;17.982;2022-12-17T00:22:36;19.10;;;6.20;;
77012;SDS011;65946;53.130;17.982;2022-12-17T00:25:21;15.80;;;5.90;;
77012;SDS011;65946;53.130;17.982;2022-12-17T00:28:10;18.60;;;5.40;;
77012;SDS011;65946;53.130;17.982;2022-12-17T00:30:57;11.40;;;3.40;;
77012;SDS011;65946;53.130;17.982;2022-12-17T00:33:42;12.60;;;4.90;;
77012;SDS011;65946;53.130;17.982;2022-12-17T00:36:28;17.70;;;5.30;;
77012;SDS011;65946;53.130;17.982;2022-12-17T00:39:13;18.30;;;6.10;;
77012;SDS011;65946;53.130;17.982;2022-12-17T00:41:58;21.10;;;6.90;;
77012;SDS011;65946;53.130;17.982;2022-12-17T00:44:44;20.00;;;6.80;;
77012;SDS011;65946;53.130;17.982;2022-12-17T00:47:29;20.10;;;7.40;;
77012;SDS011;65946;53.130;17.982;2022-12-17T00:50:14;20.60;;;6.90;;
77012;SDS011;65946;53.130;17.982;2022-12-17T00:53:00;19.60;;;6.80;;
77012;SDS011;65946;53.130;17.982;2022-12-17T00:55:45;11.70;;;3.90;;
77012;SDS011;65946;53.130;17.982;2022-12-17T00:58:31;20.90;;;7.20;;
77012;SDS011;65946;53.130;17.982;2022-12-17T01:01:16;20.60;;;6.50;;
77012;SDS011;65946;53.130;17.982;2022-12-17T01:04:01;21.70;;;6.20;;
77012;SDS011;65946;53.130;17.982;2022-12-17T01:06:46;23.20;;;7.00;;
77012;SDS011;65946;53.130;17.982;2022-12-17T01:12:17;18.30;;;5.80;;
77012;SDS011;65946;53.130;17.982;2022-12-17T01:15:03;22.50;;;6.40;;
77012;SDS011;65946;53.130;17.982;2022-12-17T01:17:49;22.30;;;6.80;;
77012;SDS011;65946;53.130;17.982;2022-12-17T01:23:19;14.80;;;5.70;;
77012;SDS011;65946;53.130;17.982;2022-12-17T01:26:05;12.40;;;4.50;;
77012;SDS011;65946;53.130;17.982;2022-12-17T01:28:50;20.20;;;5.30;;
77012;SDS011;65946;53.130;17.982;2022-12-17T01:31:35;21.30;;;7.10;;
77012;SDS011;65946;53.130;17.982;2022-12-17T01:34:21;22.90;;;8.10;;
77012;SDS011;65946;53.130;17.982;2022-12-17T01:37:20;17.50;;;6.40;;
77012;SDS011;65946;53.130;17.982;2022-12-17T01:40:05;24.50;;;8.60;;
77012;SDS011;65946;53.130;17.982;2022-12-17T01:42:50;17.90;;;5.80;;
77012;SDS011;65946;53.130;17.982;2022-12-17T01:45:37;10.40;;;3.40;;
77012;SDS011;65946;53.130;17.982;2022-12-17T01:48:27;13.70;;;4.10;;
77012;SDS011;65946;53.130;17.982;2022-12-17T01:51:19;17.30;;;5.70;;
77012;SDS011;65946;53.130;17.982;2022-12-17T01:54:04;20.70;;;6.00;;
77012;SDS011;65946;53.130;17.982;2022-12-17T01:56:50;22.00;;;6.20;;
77012;SDS011;65946;53.130;17.982;2022-12-17T01:59:56;21.20;;;7.90;;
77012;SDS011;65946;53.130;17.982;2022-12-17T02:02:44;19.40;;;6.60;;
77012;SDS011;65946;53.130;17.982;2022-12-17T02:05:32;19.80;;;6.40;;
77012;SDS011;65946;53.130;17.982;2022-12-17T02:08:30;17.60;;;5.60;;
77012;SDS011;65946;53.130;17.982;2022-12-17T02:14:45;19.00;;;5.80;;
77012;SDS011;65946;53.130;17.982;2022-12-17T02:17:35;20.80;;;5.90;;
77012;SDS011;65946;53.130;17.982;2022-12-17T02:29:21;22.50;;;6.70;;
77012;SDS011;65946;53.130;17.982;2022-12-17T02:32:09;25.30;;;8.10;;
77012;SDS011;65946;53.130;17.982;2022-12-17T02:34:59;21.70;;;7.30;;
77012;SDS011;65946;53.130;17.982;2022-12-17T02:37:46;22.30;;;7.80;;
77012;SDS011;65946;53.130;17.982;2022-12-17T02:40:36;25.60;;;8.10;;
77012;SDS011;65946;53.130;17.982;2022-12-17T02:43:22;19.20;;;6.10;;
77012;SDS011;65946;53.130;17.982;2022-12-17T02:46:09;18.20;;;6.40;;
77012;SDS011;65946;53.130;17.982;2022-12-17T02:48:54;12.50;;;4.90;;
77012;SDS011;65946;53.130;17.982;2022-12-17T02:51:40;21.30;;;6.90;;
77012;SDS011;65946;53.130;17.982;2022-12-17T02:54:28;18.50;;;7.10;;
77012;SDS011;65946;53.130;17.982;2022-12-17T02:57:14;28.20;;;8.70;;
77012;SDS011;65946;53.130;17.982;2022-12-17T03:02:45;22.50;;;7.40;;
77012;SDS011;65946;53.130;17.982;2022-12-17T03:05:31;17.30;;;5.70;;
77012;SDS011;65946;53.130;17.982;2022-12-17T03:08:20;18.40;;;5.30;;
77012;SDS011;65946;53.130;17.982;2022-12-17T03:11:06;26.60;;;7.10;;
77012;SDS011;65946;53.130;17.982;2022-12-17T03:13:51;23.50;;;7.40;;
77012;SDS011;65946;53.130;17.982;2022-12-17T03:16:37;25.20;;;7.60;;
77012;SDS011;65946;53.130;17.982;2022-12-17T03:19:22;22.00;;;6.90;;
77012;SDS011;65946;53.130;17.982;2022-12-17T03:22:08;20.50;;;6.70;;
77012;SDS011;65946;53.130;17.982;2022-12-17T03:24:53;34.90;;;8.60;;
77012;SDS011;65946;53.130;17.982;2022-12-17T03:27:39;32.30;;;8.90;;
77012;SDS011;65946;53.130;17.982;2022-12-17T03:30:24;13.70;;;5.70;;
77012;SDS011;65946;53.130;17.982;2022-12-17T03:33:09;18.70;;;6.20;;
77012;SDS011;65946;53.130;17.982;2022-12-17T03:35:55;26.10;;;8.90;;
77012;SDS011;65946;53.130;17.982;2022-12-17T03:38:40;23.90;;;7.50;;
77012;SDS011;65946;53.130;17.982;2022-12-17T03:41:25;29.90;;;9.00;;
77012;SDS011;65946;53.130;17.982;2022-12-17T03:44:11;24.40;;;7.30;;
77012;SDS011;65946;53.130;17.982;2022-12-17T03:46:56;15.20;;;5.30;;
77012;SDS011;65946;53.130;17.982;2022-12-17T03:52:27;17.20;;;5.50;;
77012;SDS011;65946;53.130;17.982;2022-12-17T03:57:57;16.50;;;5.20;;
77012;SDS011;65946;53.130;17.982;2022-12-17T04:00:42;10.50;;;4.40;;
77012;SDS011;65946;53.130;17.982;2022-12-17T04:03:29;13.50;;;4.60;;
77012;SDS011;65946;53.130;17.982;2022-12-17T04:06:15;20.10;;;6.40;;
77012;SDS011;65946;53.130;17.982;2022-12-17T04:09:00;14.40;;;4.40;;
77012;SDS011;65946;53.130;17.982;2022-12-17T04:11:53;13.00;;;4.50;;
77012;SDS011;65946;53.130;17.982;2022-12-17T04:17:24;20.70;;;7.20;;
77012;SDS011;65946;53.130;17.982;2022-12-17T04:20:09;7.90;;;2.90;;
77012;SDS011;65946;53.130;17.982;2022-12-17T04:22:55;13.10;;;3.50;;
77012;SDS011;65946;53.130;17.982;2022-12-17T04:25:40;5.90;;;2.00;;
77012;SDS011;65946;53.130;17.982;2022-12-17T04:28:26;13.30;;;4.20;;
77012;SDS011;65946;53.130;17.982;2022-12-17T04:31:11;17.00;;;5.40;;
77012;SDS011;65946;53.130;17.982;2022-12-17T04:36:41;6.60;;;2.10;;
77012;SDS011;65946;53.130;17.982;2022-12-17T04:42:12;10.70;;;3.80;;
77012;SDS011;65946;53.130;17.982;2022-12-17T04:44:57;6.00;;;2.30;;
77012;SDS011;65946;53.130;17.982;2022-12-17T04:47:42;10.70;;;2.90;;
77012;SDS011;65946;53.130;17.982;2022-12-17T04:50:28;11.00;;;3.30;;
77012;SDS011;65946;53.130;17.982;2022-12-17T04:53:13;14.70;;;4.50;;
77012;SDS011;65946;53.130;17.982;2022-12-17T04:55:59;14.30;;;4.50;;
77012;SDS011;65946;53.130;17.982;2022-12-17T04:58:45;13.40;;;5.10;;
77012;SDS011;65946;53.130;17.982;2022-12-17T05:01:31;11.60;;;4.50;;
77012;SDS011;65946;53.130;17.982;2022-12-17T05:04:16;19.40;;;6.90;;
77012;SDS011;65946;53.130;17.982;2022-12-17T05:07:01;15.80;;;6.80;;
77012;SDS011;65946;53.130;17.982;2022-12-17T05:09:47;18.50;;;7.30;;
77012;SDS011;65946;53.130;17.982;2022-12-17T05:12:32;14.90;;;4.70;;
77012;SDS011;65946;53.130;17.982;2022-12-17T05:15:17;14.40;;;5.00;;
77012;SDS011;65946;53.130;17.982;2022-12-17T05:18:06;15.20;;;5.80;;
77012;SDS011;65946;53.130;17.982;2022-12-17T05:20:52;13.00;;;4.40;;
77012;SDS011;65946;53.130;17.982;2022-12-17T05:23:37;15.20;;;5.50;;
77012;SDS011;65946;53.130;17.982;2022-12-17T05:26:23;14.00;;;4.90;;
77012;SDS011;65946;53.130;17.982;2022-12-17T05:29:11;10.40;;;3.60;;
77012;SDS011;65946;53.130;17.982;2022-12-17T05:31:57;6.90;;;2.90;;
77012;SDS011;65946;53.130;17.982;2022-12-17T05:34:43;10.50;;;3.50;;
77012;SDS011;65946;53.130;17.982;2022-12-17T05:37:31;12.10;;;4.10;;
77012;SDS011;65946;53.130;17.982;2022-12-17T05:40:16;11.40;;;3.90;;
77012;SDS011;65946;53.130;17.982;2022-12-17T05:43:03;15.40;;;5.20;;
77012;SDS011;65946;53.130;17.982;2022-12-17T05:45:51;8.00;;;2.80;;
77012;SDS011;65946;53.130;17.982;2022-12-17T05:48:38;15.20;;;4.70;;
77012;SDS011;65946;53.130;17.982;2022-12-17T05:51:23;8.10;;;3.50;;
77012;SDS011;65946;53.130;17.982;2022-12-17T05:54:08;13.20;;;4.60;;
77012;SDS011;65946;53.130;17.982;2022-12-17T05:56:54;15.60;;;5.80;;
77012;SDS011;65946;53.130;17.982;2022-12-17T06:02:25;14.50;;;4.90;;
77012;SDS011;65946;53.130;17.982;2022-12-17T06:05:10;21.10;;;7.30;;
77012;SDS011;65946;53.130;17.982;2022-12-17T06:08:03;15.70;;;5.80;;
77012;SDS011;65946;53.130;17.982;2022-12-17T06:10:52;16.90;;;5.20;;
77012;SDS011;65946;53.130;17.982;2022-12-17T06:13:38;16.40;;;5.50;;
77012;SDS011;65946;53.130;17.982;2022-12-17T06:16:23;19.20;;;6.20;;
77012;SDS011;65946;53.130;17.982;2022-12-17T06:19:09;16.00;;;5.20;;
77012;SDS011;65946;53.130;17.982;2022-12-17T06:21:54;11.40;;;3.90;;
77012;SDS011;65946;53.130;17.982;2022-12-17T06:24:39;9.60;;;3.60;;
77012;SDS011;65946;53.130;17.982;2022-12-17T06:27:25;22.40;;;6.90;;
77012;SDS011;65946;53.130;17.982;2022-12-17T06:30:10;19.70;;;6.70;;
77012;SDS011;65946;53.130;17.982;2022-12-17T06:33:06;17.00;;;5.60;;
77012;SDS011;65946;53.130;17.982;2022-12-17T06:35:54;12.90;;;4.80;;
77012;SDS011;65946;53.130;17.982;2022-12-17T06:38:41;16.50;;;6.00;;
77012;SDS011;65946;53.130;17.982;2022-12-17T06:41:27;20.70;;;5.90;;
77012;SDS011;65946;53.130;17.982;2022-12-17T06:44:13;20.60;;;6.50;;
77012;SDS011;65946;53.130;17.982;2022-12-17T06:46:58;21.00;;;7.40;;
77012;SDS011;65946;53.130;17.982;2022-12-17T06:49:43;15.70;;;4.30;;
77012;SDS011;65946;53.130;17.982;2022-12-17T06:52:56;10.10;;;2.80;;
77012;SDS011;65946;53.130;17.982;2022-12-17T06:55:49;16.20;;;5.20;;
77012;SDS011;65946;53.130;17.982;2022-12-17T06:58:37;15.70;;;5.30;;
77012;SDS011;65946;53.130;17.982;2022-12-17T07:01:23;14.20;;;4.90;;
77012;SDS011;65946;53.130;17.982;2022-12-17T07:04:08;17.50;;;6.00;;
77012;SDS011;65946;53.130;17.982;2022-12-17T07:06:53;12.90;;;5.40;;
77012;SDS011;65946;53.130;17.982;2022-12-17T07:09:39;17.30;;;5.60;;
77012;SDS011;65946;53.130;17.982;2022-12-17T07:12:25;10.40;;;4.00;;
77012;SDS011;65946;53.130;17.982;2022-12-17T07:15:10;8.30;;;3.20;;
77012;SDS011;65946;53.130;17.982;2022-12-17T07:18:00;10.60;;;3.70;;
77012;SDS011;65946;53.130;17.982;2022-12-17T07:20:47;11.20;;;4.40;;
77012;SDS011;65946;53.130;17.982;2022-12-17T07:23:32;12.70;;;4.60;;
77012;SDS011;65946;53.130;17.982;2022-12-17T07:26:18;11.60;;;4.40;;
77012;SDS011;65946;53.130;17.982;2022-12-17T07:29:03;14.10;;;5.70;;
77012;SDS011;65946;53.130;17.982;2022-12-17T07:34:34;8.20;;;2.80;;
77012;SDS011;65946;53.130;17.982;2022-12-17T07:37:19;18.00;;;5.00;;
77012;SDS011;65946;53.130;17.982;2022-12-17T07:40:24;15.80;;;5.20;;
77012;SDS011;65946;53.130;17.982;2022-12-17T07:43:10;7.50;;;3.00;;
77012;SDS011;65946;53.130;17.982;2022-12-17T07:45:56;14.60;;;5.20;;
77012;SDS011;65946;53.130;17.982;2022-12-17T07:48:42;14.20;;;5.20;;
77012;SDS011;65946;53.130;17.982;2022-12-17T07:51:27;12.40;;;4.20;;
77012;SDS011;65946;53.130;17.982;2022-12-17T07:54:12;16.10;;;5.60;;
77012;SDS011;65946;53.130;17.982;2022-12-17T07:56:57;14.40;;;5.60;;
77012;SDS011;65946;53.130;17.982;2022-12-17T07:59:43;15.40;;;5.10;;
77012;SDS011;65946;53.130;17.982;2022-12-17T08:02:31;14.60;;;4.80;;
77012;SDS011;65946;53.130;17.982;2022-12-17T08:05:16;11.00;;;4.10;;
77012;SDS011;65946;53.130;17.982;2022-12-17T08:08:11;17.30;;;5.80;;
77012;SDS011;65946;53.130;17.982;2022-12-17T08:10:57;12.70;;;4.30;;
77012;SDS011;65946;53.130;17.982;2022-12-17T08:13:43;20.20;;;6.80;;
77012;SDS011;65946;53.130;17.982;2022-12-17T08:16:29;18.10;;;7.20;;
77012;SDS011;65946;53.130;17.982;2022-12-17T08:19:15;12.40;;;4.40;;
77012;SDS011;65946;53.130;17.982;2022-12-17T08:22:00;17.00;;;6.00;;
77012;SDS011;65946;53.130;17.982;2022-12-17T08:24:45;16.20;;;5.40;;
77012;SDS011;65946;53.130;17.982;2022-12-17T08:30:16;13.00;;;5.10;;
77012;SDS011;65946;53.130;17.982;2022-12-17T08:33:02;9.90;;;3.20;;
77012;SDS011;65946;53.130;17.982;2022-12-17T08:35:55;9.60;;;3.70;;
77012;SDS011;65946;53.130;17.982;2022-12-17T08:38:42;15.60;;;5.10;;
77012;SDS011;65946;53.130;17.982;2022-12-17T08:41:27;15.10;;;5.00;;
77012;SDS011;65946;53.130;17.982;2022-12-17T08:46:58;12.60;;;4.70;;
77012;SDS011;65946;53.130;17.982;2022-12-17T08:49:43;11.70;;;4.20;;
77012;SDS011;65946;53.130;17.982;2022-12-17T08:52:28;11.30;;;3.90;;
77012;SDS011;65946;53.130;17.982;2022-12-17T08:55:14;8.10;;;3.20;;
77012;SDS011;65946;53.130;17.982;2022-12-17T08:57:59;13.20;;;4.90;;
77012;SDS011;65946;53.130;17.982;2022-12-17T09:00:44;12.60;;;4.10;;
77012;SDS011;65946;53.130;17.982;2022-12-17T09:03:30;13.20;;;4.70;;
77012;SDS011;65946;53.130;17.982;2022-12-17T09:06:15;9.30;;;3.60;;
77012;SDS011;65946;53.130;17.982;2022-12-17T09:09:01;11.50;;;4.00;;
77012;SDS011;65946;53.130;17.982;2022-12-17T09:11:46;14.00;;;4.90;;
77012;SDS011;65946;53.130;17.982;2022-12-17T09:14:31;14.60;;;6.20;;
77012;SDS011;65946;53.130;17.982;2022-12-17T09:17:17;11.50;;;4.10;;
77012;SDS011;65946;53.130;17.982;2022-12-17T09:20:02;7.40;;;2.70;;
77012;SDS011;65946;53.130;17.982;2022-12-17T09:22:47;13.50;;;5.80;;
77012;SDS011;65946;53.130;17.982;2022-12-17T09:25:33;9.70;;;3.70;;
77012;SDS011;65946;53.130;17.982;2022-12-17T09:28:18;10.40;;;3.10;;
77012;SDS011;65946;53.130;17.982;2022-12-17T09:31:03;12.00;;;4.10;;
77012;SDS011;65946;53.130;17.982;2022-12-17T09:33:49;10.70;;;4.40;;
77012;SDS011;65946;53.130;17.982;2022-12-17T09:36:45;14.20;;;5.50;;
77012;SDS011;65946;53.130;17.982;2022-12-17T09:39:30;8.80;;;3.10;;
77012;SDS011;65946;53.130;17.982;2022-12-17T09:42:21;14.20;;;5.20;;
77012;SDS011;65946;53.130;17.982;2022-12-17T09:45:31;9.30;;;3.60;;
77012;SDS011;65946;53.130;17.982;2022-12-17T09:48:23;17.00;;;6.20;;
77012;SDS011;65946;53.130;17.982;2022-12-17T09:54:09;17.00;;;5.10;;
77012;SDS011;65946;53.130;17.982;2022-12-17T09:57:19;14.80;;;4.80;;
77012;SDS011;65946;53.130;17.982;2022-12-17T10:03:03;15.40;;;5.20;;
77012;SDS011;65946;53.130;17.982;2022-12-17T10:05:55;13.20;;;4.80;;
77012;SDS011;65946;53.130;17.982;2022-12-17T10:08:44;18.30;;;6.60;;
77012;SDS011;65946;53.130;17.982;2022-12-17T10:11:30;13.00;;;4.30;;
77012;SDS011;65946;53.130;17.982;2022-12-17T10:14:21;10.60;;;4.10;;
77012;SDS011;65946;53.130;17.982;2022-12-17T10:17:15;9.90;;;4.00;;
77012;SDS011;65946;53.130;17.982;2022-12-17T10:20:01;13.40;;;5.80;;
77012;SDS011;65946;53.130;17.982;2022-12-17T10:22:48;12.90;;;4.80;;
77012;SDS011;65946;53.130;17.982;2022-12-17T10:25:34;19.00;;;7.20;;
77012;SDS011;65946;53.130;17.982;2022-12-17T10:28:23;15.10;;;5.60;;
77012;SDS011;65946;53.130;17.982;2022-12-17T10:31:10;9.00;;;3.70;;
77012;SDS011;65946;53.130;17.982;2022-12-17T10:34:06;19.50;;;7.00;;
77012;SDS011;65946;53.130;17.982;2022-12-17T10:37:18;15.30;;;6.50;;
77012;SDS011;65946;53.130;17.982;2022-12-17T10:40:17;20.60;;;7.60;;
77012;SDS011;65946;53.130;17.982;2022-12-17T10:43:25;15.90;;;6.20;;
77012;SDS011;65946;53.130;17.982;2022-12-17T10:46:26;15.50;;;5.90;;
77012;SDS011;65946;53.130;17.982;2022-12-17T10:55:19;8.90;;;3.80;;
77012;SDS011;65946;53.130;17.982;2022-12-17T10:58:08;11.00;;;4.50;;
77012;SDS011;65946;53.130;17.982;2022-12-17T11:00:58;20.10;;;7.20;;
77012;SDS011;65946;53.130;17.982;2022-12-17T11:03:52;21.30;;;7.70;;
77012;SDS011;65946;53.130;17.982;2022-12-17T11:06:45;15.60;;;5.70;;
77012;SDS011;65946;53.130;17.982;2022-12-17T11:15:44;13.20;;;5.80;;
77012;SDS011;65946;53.130;17.982;2022-12-17T11:18:38;16.40;;;6.40;;
77012;SDS011;65946;53.130;17.982;2022-12-17T11:21:33;19.80;;;6.90;;
77012;SDS011;65946;53.130;17.982;2022-12-17T11:28:00;22.00;;;8.00;;
77012;SDS011;65946;53.130;17.982;2022-12-17T11:30:59;18.40;;;6.80;;
77012;SDS011;65946;53.130;17.982;2022-12-17T11:34:05;16.90;;;6.30;;
77012;SDS011;65946;53.130;17.982;2022-12-17T11:37:20;9.80;;;4.20;;
77012;SDS011;65946;53.130;17.982;2022-12-17T11:40:15;13.10;;;5.30;;
77012;SDS011;65946;53.130;17.982;2022-12-17T11:55:35;18.60;;;6.60;;
77012;SDS011;65946;53.130;17.982;2022-12-17T11:58:44;15.30;;;6.50;;
77012;SDS011;65946;53.130;17.982;2022-12-17T12:01:39;14.90;;;6.10;;
77012;SDS011;65946;53.130;17.982;2022-12-17T12:04:37;15.80;;;5.80;;
77012;SDS011;65946;53.130;17.982;2022-12-17T12:07:41;14.70;;;5.40;;
77012;SDS011;65946;53.130;17.982;2022-12-17T12:13:37;16.30;;;6.50;;
77012;SDS011;65946;53.130;17.982;2022-12-17T12:22:53;11.30;;;4.40;;
77012;SDS011;65946;53.130;17.982;2022-12-17T12:25:45;19.20;;;7.80;;
77012;SDS011;65946;53.130;17.982;2022-12-17T12:28:34;15.90;;;6.40;;
77012;SDS011;65946;53.130;17.982;2022-12-17T12:31:29;16.90;;;7.20;;
77012;SDS011;65946;53.130;17.982;2022-12-17T12:34:24;23.00;;;9.10;;
77012;SDS011;65946;53.130;17.982;2022-12-17T12:37:16;16.90;;;7.00;;
77012;SDS011;65946;53.130;17.982;2022-12-17T12:40:18;20.10;;;7.70;;
77012;SDS011;65946;53.130;17.982;2022-12-17T12:43:22;12.30;;;4.90;;
77012;SDS011;65946;53.130;17.982;2022-12-17T12:46:21;19.40;;;7.90;;
77012;SDS011;65946;53.130;17.982;2022-12-17T12:52:10;14.50;;;6.40;;
77012;SDS011;65946;53.130;17.982;2022-12-17T12:55:01;17.10;;;7.00;;
77012;SDS011;65946;53.130;17.982;2022-12-17T12:57:57;21.40;;;7.10;;
77012;SDS011;65946;53.130;17.982;2022-12-17T13:06:48;21.20;;;7.60;;
77012;SDS011;65946;53.130;17.982;2022-12-17T13:09:21;24.00;;;9.60;;
77012;SDS011;65946;53.130;17.982;2022-12-17T13:14:31;29.30;;;11.20;;
77012;SDS011;65946;53.130;17.982;2022-12-17T13:19:45;30.00;;;11.70;;
77012;SDS011;65946;53.130;17.982;2022-12-17T13:24:53;43.00;;;18.60;;
77012;SDS011;65946;53.130;17.982;2022-12-17T13:33:02;32.00;;;11.40;;
77012;SDS011;65946;53.130;17.982;2022-12-17T13:36:10;26.50;;;9.70;;
77012;SDS011;65946;53.130;17.982;2022-12-17T13:41:59;30.40;;;11.00;;
77012;SDS011;65946;53.130;17.982;2022-12-17T13:44:28;32.10;;;11.90;;
77012;SDS011;65946;53.130;17.982;2022-12-17T13:47:01;23.90;;;8.80;;
77012;SDS011;65946;53.130;17.982;2022-12-17T13:49:28;32.40;;;12.80;;
77012;SDS011;65946;53.130;17.982;2022-12-17T13:52:00;32.20;;;12.50;;
77012;SDS011;65946;53.130;17.982;2022-12-17T13:54:29;26.90;;;10.80;;
77012;SDS011;65946;53.130;17.982;2022-12-17T13:57:08;27.80;;;9.90;;
77012;SDS011;65946;53.130;17.982;2022-12-17T13:59:39;31.60;;;11.50;;
77012;SDS011;65946;53.130;17.982;2022-12-17T14:02:20;30.80;;;10.60;;
77012;SDS011;65946;53.130;17.982;2022-12-17T14:04:53;27.30;;;10.10;;
77012;SDS011;65946;53.130;17.982;2022-12-17T14:07:23;22.70;;;8.80;;
77012;SDS011;65946;53.130;17.982;2022-12-17T14:09:51;36.00;;;12.90;;
77012;SDS011;65946;53.130;17.982;2022-12-17T14:12:20;39.60;;;13.80;;
77012;SDS011;65946;53.130;17.982;2022-12-17T14:14:52;21.90;;;8.00;;
77012;SDS011;65946;53.130;17.982;2022-12-17T14:17:24;38.20;;;12.50;;
77012;SDS011;65946;53.130;17.982;2022-12-17T14:20:14;41.40;;;14.20;;
77012;SDS011;65946;53.130;17.982;2022-12-17T14:22:42;35.20;;;12.90;;
77012;SDS011;65946;53.130;17.982;2022-12-17T14:25:13;34.40;;;14.30;;
77012;SDS011;65946;53.130;17.982;2022-12-17T14:27:52;42.00;;;15.80;;
77012;SDS011;65946;53.130;17.982;2022-12-17T14:30:29;46.40;;;15.40;;
77012;SDS011;65946;53.130;17.982;2022-12-17T14:33:02;48.20;;;16.30;;
77012;SDS011;65946;53.130;17.982;2022-12-17T14:35:33;40.10;;;14.60;;
77012;SDS011;65946;53.130;17.982;2022-12-17T14:38:04;67.40;;;21.60;;
77012;SDS011;65946;53.130;17.982;2022-12-17T14:40:31;28.10;;;9.70;;
77012;SDS011;65946;53.130;17.982;2022-12-17T14:45:26;65.10;;;18.50;;
77012;SDS011;65946;53.130;17.982;2022-12-17T14:47:58;50.90;;;13.90;;
77012;SDS011;65946;53.130;17.982;2022-12-17T14:50:28;27.10;;;9.50;;
77012;SDS011;65946;53.130;17.982;2022-12-17T14:53:00;34.60;;;11.30;;
77012;SDS011;65946;53.130;17.982;2022-12-17T14:55:31;38.90;;;14.40;;
77012;SDS011;65946;53.130;17.982;2022-12-17T15:00:56;29.40;;;10.90;;
77012;SDS011;65946;53.130;17.982;2022-12-17T15:03:30;30.40;;;11.30;;
77012;SDS011;65946;53.130;17.982;2022-12-17T15:06:02;36.00;;;12.80;;
77012;SDS011;65946;53.130;17.982;2022-12-17T15:08:35;18.50;;;7.00;;
77012;SDS011;65946;53.130;17.982;2022-12-17T15:11:05;19.20;;;7.00;;
77012;SDS011;65946;53.130;17.982;2022-12-17T15:13:32;43.80;;;15.20;;
77012;SDS011;65946;53.130;17.982;2022-12-17T15:15:58;33.80;;;13.70;;
77012;SDS011;65946;53.130;17.982;2022-12-17T15:18:25;46.50;;;15.90;;
77012;SDS011;65946;53.130;17.982;2022-12-17T15:20:52;44.20;;;18.00;;
77012;SDS011;65946;53.130;17.982;2022-12-17T15:23:19;42.90;;;16.70;;
77012;SDS011;65946;53.130;17.982;2022-12-17T15:25:48;48.40;;;17.70;;
77012;SDS011;65946;53.130;17.982;2022-12-17T15:28:16;42.00;;;14.20;;
77012;SDS011;65946;53.130;17.982;2022-12-17T15:30:44;17.60;;;5.90;;
77012;SDS011;65946;53.130;17.982;2022-12-17T15:33:12;40.80;;;12.90;;
77012;SDS011;65946;53.130;17.982;2022-12-17T15:35:40;26.50;;;8.80;;
77012;SDS011;65946;53.130;17.982;2022-12-17T15:38:09;30.80;;;11.10;;
77012;SDS011;65946;53.130;17.982;2022-12-17T15:40:38;33.40;;;12.40;;
77012;SDS011;65946;53.130;17.982;2022-12-17T15:43:10;35.30;;;12.90;;
77012;SDS011;65946;53.130;17.982;2022-12-17T15:48:10;31.30;;;10.40;;
77012;SDS011;65946;53.130;17.982;2022-12-17T15:50:38;59.00;;;22.30;;
77012;SDS011;65946;53.130;17.982;2022-12-17T15:55:32;14.40;;;5.90;;
77012;SDS011;65946;53.130;17.982;2022-12-17T15:57:59;26.60;;;9.90;;
77012;SDS011;65946;53.130;17.982;2022-12-17T16:00:25;24.70;;;8.80;;
77012;SDS011;65946;53.130;17.982;2022-12-17T16:02:52;12.60;;;5.20;;
77012;SDS011;65946;53.130;17.982;2022-12-17T16:05:21;34.30;;;12.70;;
77012;SDS011;65946;53.130;17.982;2022-12-17T16:07:48;29.30;;;10.40;;
77012;SDS011;65946;53.130;17.982;2022-12-17T16:10:16;31.40;;;11.70;;
77012;SDS011;65946;53.130;17.982;2022-12-17T16:12:43;34.10;;;12.30;;
77012;SDS011;65946;53.130;17.982;2022-12-17T16:15:11;28.10;;;9.00;;
77012;SDS011;65946;53.130;17.982;2022-12-17T16:17:38;23.10;;;8.30;;
77012;SDS011;65946;53.130;17.982;2022-12-17T16:20:04;21.90;;;8.40;;
77012;SDS011;65946;53.130;17.982;2022-12-17T16:22:32;24.10;;;9.00;;
77012;SDS011;65946;53.130;17.982;2022-12-17T16:24:59;24.30;;;9.90;;
77012;SDS011;65946;53.130;17.982;2022-12-17T16:27:26;32.40;;;12.50;;
77012;SDS011;65946;53.130;17.982;2022-12-17T16:29:55;28.20;;;11.00;;
77012;SDS011;65946;53.130;17.982;2022-12-17T16:32:21;37.70;;;13.80;;
77012;SDS011;65946;53.130;17.982;2022-12-17T16:34:49;37.00;;;13.00;;
77012;SDS011;65946;53.130;17.982;2022-12-17T16:37:16;30.50;;;10.20;;
77012;SDS011;65946;53.130;17.982;2022-12-17T16:39:43;37.10;;;12.70;;
77012;SDS011;65946;53.130;17.982;2022-12-17T16:42:10;38.50;;;14.40;;
77012;SDS011;65946;53.130;17.982;2022-12-17T16:44:37;43.00;;;14.70;;
77012;SDS011;65946;53.130;17.982;2022-12-17T16:47:03;39.10;;;13.50;;
77012;SDS011;65946;53.130;17.982;2022-12-17T16:49:30;35.70;;;12.40;;
77012;SDS011;65946;53.130;17.982;2022-12-17T16:54:25;28.60;;;10.50;;
77012;SDS011;65946;53.130;17.982;2022-12-17T16:56:54;33.10;;;11.40;;
77012;SDS011;65946;53.130;17.982;2022-12-17T16:59:21;39.70;;;14.00;;
77012;SDS011;65946;53.130;17.982;2022-12-17T17:01:49;13.60;;;5.60;;
77012;SDS011;65946;53.130;17.982;2022-12-17T17:04:19;21.70;;;9.00;;
77012;SDS011;65946;53.130;17.982;2022-12-17T17:06:50;24.80;;;8.30;;
77012;SDS011;65946;53.130;17.982;2022-12-17T17:09:19;28.00;;;9.50;;
77012;SDS011;65946;53.130;17.982;2022-12-17T17:11:55;16.00;;;6.40;;
77012;SDS011;65946;53.130;17.982;2022-12-17T17:14:26;24.60;;;8.10;;
77012;SDS011;65946;53.130;17.982;2022-12-17T17:16:53;17.70;;;6.50;;
77012;SDS011;65946;53.130;17.982;2022-12-17T17:19:19;34.50;;;12.20;;
77012;SDS011;65946;53.130;17.982;2022-12-17T17:21:50;34.70;;;10.30;;
77012;SDS011;65946;53.130;17.982;2022-12-17T17:24:20;27.20;;;9.00;;
77012;SDS011;65946;53.130;17.982;2022-12-17T17:26:49;19.40;;;6.50;;
77012;SDS011;65946;53.130;17.982;2022-12-17T17:29:17;23.80;;;8.90;;
77012;SDS011;65946;53.130;17.982;2022-12-17T17:31:44;38.70;;;12.80;;
77012;SDS011;65946;53.130;17.982;2022-12-17T17:34:12;36.90;;;11.90;;
77012;SDS011;65946;53.130;17.982;2022-12-17T17:36:39;36.80;;;13.50;;
77012;SDS011;65946;53.130;17.982;2022-12-17T17:39:07;35.20;;;10.80;;
77012;SDS011;65946;53.130;17.982;2022-12-17T17:41:34;20.40;;;6.70;;
77012;SDS011;65946;53.130;17.982;2022-12-17T17:44:05;36.40;;;11.40;;
77012;SDS011;65946;53.130;17.982;2022-12-17T17:46:35;32.20;;;12.30;;
77012;SDS011;65946;53.130;17.982;2022-12-17T17:49:03;38.80;;;13.90;;
77012;SDS011;65946;53.130;17.982;2022-12-17T17:51:33;40.70;;;13.70;;
77012;SDS011;65946;53.130;17.982;2022-12-17T17:54:01;23.20;;;8.00;;
77012;SDS011;65946;53.130;17.982;2022-12-17T17:56:31;18.10;;;6.10;;
77012;SDS011;65946;53.130;17.982;2022-12-17T17:59:00;27.00;;;9.40;;